createdAt,value
2022-09-03T00:00:05.510Z,15.17
2022-09-03T00:02:54.061Z,15.16
2022-09-03T00:05:41.580Z,15.18
2022-09-03T00:08:11.604Z,15.14
2022-09-03T00:10:38.621Z,15.09
2022-09-03T00:13:07.932Z,15.06
2022-09-03T00:15:35.965Z,15.00
2022-09-03T00:18:24.840Z,14.96
2022-09-03T00:21:13.084Z,15.00
2022-09-03T00:23:41.632Z,15.00
2022-09-03T00:26:12.232Z,14.97
2022-09-03T00:28:45.460Z,14.90
2022-09-03T00:31:27.536Z,14.91
2022-09-03T00:34:05.355Z,14.87
2022-09-03T00:36:42.528Z,14.83
2022-09-03T00:39:15.042Z,14.78
2022-09-03T00:41:53.627Z,14.77
2022-09-03T00:44:45.312Z,14.75
2022-09-03T00:47:24.996Z,14.66
2022-09-03T00:50:18.342Z,14.65
2022-09-03T00:53:00.415Z,14.68
2022-09-03T00:55:35.956Z,14.70
2022-09-03T00:58:10.111Z,14.61
2022-09-03T01:00:40.041Z,14.54
2022-09-03T01:03:14.065Z,14.58
2022-09-03T01:05:46.909Z,14.51
2022-09-03T01:08:32.081Z,14.52
2022-09-03T01:11:17.962Z,14.51
2022-09-03T01:14:02.470Z,14.52
2022-09-03T01:16:42.227Z,14.53
2022-09-03T01:19:28.891Z,14.53
2022-09-03T01:22:11.056Z,14.53
2022-09-03T01:24:59.195Z,14.50
2022-09-03T01:27:30.498Z,14.52
2022-09-03T01:30:18.262Z,14.48
2022-09-03T01:33:02.918Z,14.38
2022-09-03T01:35:37.656Z,14.34
2022-09-03T01:38:32.030Z,14.30
2022-09-03T01:41:25.489Z,14.27
2022-09-03T01:44:26.239Z,14.28
2022-09-03T01:47:06.647Z,14.23
2022-09-03T01:50:01.292Z,14.19
2022-09-03T01:53:03.260Z,14.23
2022-09-03T01:55:44.427Z,14.25
2022-09-03T01:58:20.989Z,14.25
2022-09-03T02:00:52.091Z,14.26
2022-09-03T02:03:19.405Z,14.22
2022-09-03T02:05:47.788Z,14.18
2022-09-03T02:08:15.081Z,14.21
2022-09-03T02:10:47.996Z,14.19
2022-09-03T02:13:27.430Z,14.12
2022-09-03T02:15:56.815Z,14.12
2022-09-03T02:18:27.061Z,14.13
2022-09-03T02:20:54.822Z,14.06
2022-09-03T02:23:25.482Z,13.99
2022-09-03T02:25:58.452Z,13.97
2022-09-03T02:28:26.528Z,14.01
2022-09-03T02:30:54.420Z,13.98
2022-09-03T02:33:21.571Z,13.98
2022-09-03T02:35:48.915Z,13.97
2022-09-03T02:38:21.529Z,13.97
2022-09-03T02:40:48.801Z,13.93
2022-09-03T02:43:25.961Z,13.91
2022-09-03T02:45:56.748Z,13.85
2022-09-03T02:48:24.785Z,13.88
2022-09-03T02:50:52.059Z,13.90
2022-09-03T02:53:19.678Z,13.97
2022-09-03T02:55:46.794Z,13.93
2022-09-03T02:58:14.192Z,13.93
2022-09-03T03:00:41.304Z,13.84
2022-09-03T03:03:08.437Z,13.82
2022-09-03T03:05:49.839Z,13.75
2022-09-03T03:08:21.223Z,13.73
2022-09-03T03:10:49.269Z,13.72
2022-09-03T03:13:16.646Z,13.71
2022-09-03T03:15:44.356Z,13.67
2022-09-03T03:18:14.574Z,13.70
2022-09-03T03:20:42.114Z,13.64
2022-09-03T03:23:10.032Z,13.61
2022-09-03T03:25:38.756Z,13.58
2022-09-03T03:28:06.535Z,13.51
2022-09-03T03:30:34.464Z,13.47
2022-09-03T03:33:01.639Z,13.49
2022-09-03T03:35:28.724Z,13.50
2022-09-03T03:37:58.135Z,13.40
2022-09-03T03:40:25.739Z,13.38
2022-09-03T03:42:53.595Z,13.44
2022-09-03T03:45:20.791Z,13.39
2022-09-03T03:47:47.977Z,13.40
2022-09-03T03:50:15.343Z,13.36
2022-09-03T03:52:42.780Z,13.32
2022-09-03T03:55:09.945Z,13.29
2022-09-03T03:57:37.068Z,13.30
2022-09-03T04:00:04.729Z,13.30
2022-09-03T04:02:34.178Z,13.35
2022-09-03T04:05:04.861Z,13.37
2022-09-03T04:07:31.960Z,13.41
2022-09-03T04:10:01.208Z,13.44
2022-09-03T04:12:28.311Z,13.45
2022-09-03T04:14:55.475Z,13.47
2022-09-03T04:17:25.268Z,13.45
2022-09-03T04:19:52.657Z,13.43
2022-09-03T04:22:20.680Z,13.40
2022-09-03T04:24:47.839Z,13.42
2022-09-03T04:27:14.943Z,13.38
2022-09-03T04:29:42.085Z,13.36
2022-09-03T04:32:28.145Z,13.34
2022-09-03T04:34:55.206Z,13.32
2022-09-03T04:37:22.345Z,13.26
2022-09-03T04:39:49.596Z,13.26
2022-09-03T04:42:16.714Z,13.25
2022-09-03T04:44:43.830Z,13.21
2022-09-03T04:47:11.191Z,13.21
2022-09-03T04:49:40.140Z,13.24
2022-09-03T04:52:07.264Z,13.23
2022-09-03T04:54:34.400Z,13.20
2022-09-03T04:57:01.552Z,13.21
2022-09-03T04:59:28.637Z,13.25
2022-09-03T05:01:56.784Z,13.29
2022-09-03T05:04:23.998Z,13.32
2022-09-03T05:06:51.116Z,13.36
2022-09-03T05:09:18.229Z,13.35
2022-09-03T05:11:45.370Z,13.38
2022-09-03T05:14:12.698Z,13.42
2022-09-03T05:16:39.988Z,13.48
2022-09-03T05:19:08.064Z,13.52
2022-09-03T05:21:38.644Z,13.48
2022-09-03T05:24:05.787Z,13.43
2022-09-03T05:26:37.103Z,13.49
2022-09-03T05:29:08.250Z,13.46
2022-09-03T05:31:38.975Z,13.46
2022-09-03T05:34:06.923Z,13.41
2022-09-03T05:36:36.989Z,13.50
2022-09-03T05:39:05.573Z,13.59
2022-09-03T05:41:33.951Z,13.67
2022-09-03T05:44:01.285Z,13.68
2022-09-03T05:46:33.985Z,13.68
2022-09-03T05:49:02.541Z,13.73
2022-09-03T05:51:30.477Z,13.71
2022-09-03T05:53:57.945Z,13.72
2022-09-03T05:56:26.044Z,13.71
2022-09-03T05:58:55.967Z,13.72
2022-09-03T06:01:31.178Z,13.70
2022-09-03T06:04:02.522Z,13.64
2022-09-03T06:06:32.935Z,13.66
2022-09-03T06:09:21.184Z,13.75
2022-09-03T06:11:50.816Z,13.81
2022-09-03T06:14:20.190Z,13.91
2022-09-03T06:16:52.840Z,14.01
2022-09-03T06:19:20.269Z,14.10
2022-09-03T06:21:47.995Z,14.18
2022-09-03T06:24:20.301Z,14.23
2022-09-03T06:26:48.290Z,14.28
2022-09-03T06:29:16.001Z,14.34
2022-09-03T06:31:43.184Z,14.40
2022-09-03T06:34:10.392Z,14.50
2022-09-03T06:36:41.286Z,14.53
2022-09-03T06:39:08.432Z,14.56
2022-09-03T06:41:35.716Z,14.54
2022-09-03T06:44:11.381Z,14.59
2022-09-03T06:46:40.107Z,14.66
2022-09-03T06:49:08.398Z,14.75
2022-09-03T06:51:36.323Z,14.76
2022-09-03T06:54:08.494Z,14.73
2022-09-03T06:56:40.163Z,14.75
2022-09-03T06:59:13.046Z,14.77
2022-09-03T07:01:43.943Z,14.86
2022-09-03T07:04:13.311Z,14.99
2022-09-03T07:06:42.423Z,15.11
2022-09-03T07:09:10.968Z,15.22
2022-09-03T07:11:45.671Z,15.23
2022-09-03T07:14:13.541Z,15.30
2022-09-03T07:16:42.036Z,15.38
2022-09-03T07:19:09.749Z,15.49
2022-09-03T07:21:37.457Z,15.61
2022-09-03T07:24:05.871Z,15.70
2022-09-03T07:26:35.331Z,15.81
2022-09-03T07:29:02.842Z,15.87
2022-09-03T07:31:33.474Z,15.92
2022-09-03T07:34:11.540Z,16.00
2022-09-03T07:36:43.910Z,16.06
2022-09-03T07:39:12.063Z,16.11
2022-09-03T07:41:39.642Z,16.23
2022-09-03T07:44:08.483Z,16.30
2022-09-03T07:46:37.887Z,16.37
2022-09-03T07:49:06.233Z,16.45
2022-09-03T07:51:36.123Z,16.52
2022-09-03T07:54:06.949Z,16.60
2022-09-03T07:56:35.844Z,16.65
2022-09-03T07:59:03.729Z,16.74
2022-09-03T08:01:32.824Z,16.80
2022-09-03T08:04:01.026Z,16.86
2022-09-03T08:06:29.420Z,17.00
2022-09-03T08:09:04.135Z,17.11
2022-09-03T08:11:34.929Z,17.20
2022-09-03T08:14:07.497Z,17.24
2022-09-03T08:16:42.989Z,17.25
2022-09-03T08:19:11.245Z,17.28
2022-09-03T08:21:41.768Z,17.34
2022-09-03T08:24:09.115Z,17.41
2022-09-03T08:26:38.739Z,17.45
2022-09-03T08:29:06.134Z,17.41
2022-09-03T08:31:34.078Z,17.43
2022-09-03T08:34:06.340Z,17.46
2022-09-03T08:36:35.875Z,17.50
2022-09-03T08:39:08.035Z,17.51
2022-09-03T08:41:53.079Z,17.51
2022-09-03T08:44:35.081Z,17.50
2022-09-03T08:47:11.175Z,17.56
2022-09-03T08:49:52.356Z,17.64
2022-09-03T08:52:24.518Z,17.71
2022-09-03T08:54:52.881Z,17.79
2022-09-03T08:57:20.758Z,17.86
2022-09-03T08:59:53.512Z,17.90
2022-09-03T09:02:31.160Z,17.97
2022-09-03T09:05:16.275Z,18.02
2022-09-03T09:07:53.904Z,18.06
2022-09-03T09:10:26.353Z,18.13
2022-09-03T09:13:26.115Z,18.22
2022-09-03T09:16:16.088Z,18.32
2022-09-03T09:19:05.142Z,18.39
2022-09-03T09:21:41.342Z,18.45
2022-09-03T09:24:19.367Z,18.53
2022-09-03T09:26:46.925Z,18.61
2022-09-03T09:29:14.570Z,18.65
2022-09-03T09:31:44.650Z,18.72
2022-09-03T09:34:11.923Z,18.79
2022-09-03T09:36:53.410Z,18.88
2022-09-03T09:39:21.766Z,18.98
2022-09-03T09:41:59.952Z,19.00
2022-09-03T09:44:28.065Z,19.03
2022-09-03T09:47:04.781Z,19.12
2022-09-03T09:49:35.581Z,19.20
2022-09-03T09:52:06.342Z,19.26
2022-09-03T09:54:33.451Z,19.36
2022-09-03T09:57:03.597Z,19.41
2022-09-03T09:59:31.269Z,19.51
2022-09-03T10:02:11.607Z,19.57
2022-09-03T10:04:43.957Z,19.64
2022-09-03T10:07:27.394Z,19.76
2022-09-03T10:10:04.021Z,19.86
2022-09-03T10:12:59.131Z,19.93
2022-09-03T10:15:52.233Z,20.01
2022-09-03T10:18:56.132Z,20.05
2022-09-03T10:21:28.525Z,20.12
2022-09-03T10:24:16.999Z,20.24
2022-09-03T10:26:45.903Z,20.33
2022-09-03T10:29:18.847Z,20.41
2022-09-03T10:32:19.951Z,20.54
2022-09-03T10:35:12.654Z,20.68
2022-09-03T10:38:08.165Z,20.84
2022-09-03T10:40:39.899Z,20.99
2022-09-03T10:43:30.032Z,21.16
2022-09-03T10:46:06.212Z,21.20
2022-09-03T10:48:53.175Z,21.23
2022-09-03T10:51:26.956Z,21.30
2022-09-03T10:54:28.995Z,21.34
2022-09-03T10:57:07.950Z,21.24
2022-09-03T10:59:52.009Z,21.19
2022-09-03T11:02:34.145Z,21.26
2022-09-03T11:05:17.699Z,21.39
2022-09-03T11:07:49.345Z,21.45
2022-09-03T11:10:31.215Z,21.56
2022-09-03T11:12:58.435Z,21.87
2022-09-03T11:15:30.450Z,22.03
2022-09-03T11:18:20.737Z,22.10
2022-09-03T11:20:49.615Z,22.18
2022-09-03T11:23:17.232Z,22.22
2022-09-03T11:25:53.751Z,22.21
2022-09-03T11:28:38.937Z,22.15
2022-09-03T11:31:17.760Z,22.17
2022-09-03T11:33:49.315Z,22.22
2022-09-03T11:36:26.729Z,22.32
2022-09-03T11:38:53.979Z,22.50
2022-09-03T11:41:27.252Z,22.55
2022-09-03T11:43:54.906Z,22.51
2022-09-03T11:46:22.121Z,22.45
2022-09-03T11:48:50.123Z,22.41
2022-09-03T11:51:35.431Z,22.38
2022-09-03T11:54:07.480Z,22.30
2022-09-03T11:56:36.795Z,22.42
2022-09-03T11:59:07.379Z,22.36
2022-09-03T12:01:35.413Z,22.49
2022-09-03T12:04:07.539Z,22.59
2022-09-03T12:06:58.263Z,22.73
2022-09-03T12:09:51.563Z,22.66
2022-09-03T12:12:46.021Z,22.61
2022-09-03T12:15:28.604Z,22.58
2022-09-03T12:18:17.886Z,22.43
2022-09-03T12:20:46.781Z,22.45
2022-09-03T12:23:31.117Z,22.67
2022-09-03T12:26:02.204Z,23.15
2022-09-03T12:28:29.929Z,23.44
2022-09-03T12:31:08.267Z,23.47
2022-09-03T12:33:41.772Z,23.40
2022-09-03T12:36:09.763Z,23.42
2022-09-03T12:39:00.679Z,23.36
2022-09-03T12:41:29.412Z,23.50
2022-09-03T12:43:59.722Z,23.72
2022-09-03T12:46:32.354Z,24.12
2022-09-03T12:51:56.905Z,24.71
2022-09-03T12:54:26.234Z,24.57
2022-09-03T12:56:58.561Z,24.41
2022-09-03T12:59:28.222Z,24.26
2022-09-03T13:01:58.768Z,24.28
2022-09-03T13:04:29.260Z,24.29
2022-09-03T13:07:15.270Z,24.36
2022-09-03T13:09:42.419Z,24.44
2022-09-03T13:12:33.521Z,24.40
2022-09-03T13:15:10.678Z,24.32
2022-09-03T13:17:50.521Z,24.31
2022-09-03T13:20:29.238Z,24.44
2022-09-03T13:23:02.639Z,24.90
2022-09-03T13:25:32.722Z,25.50
2022-09-03T13:28:31.823Z,25.93
2022-09-03T13:31:10.785Z,26.24
2022-09-03T13:33:44.515Z,26.70
2022-09-03T13:36:18.046Z,26.80
2022-09-03T13:38:57.483Z,27.06
2022-09-03T13:41:28.016Z,27.41
2022-09-03T13:44:08.423Z,27.64
2022-09-03T13:46:54.963Z,27.64
2022-09-03T13:49:51.965Z,27.77
2022-09-03T13:52:28.649Z,28.22
2022-09-03T13:55:23.510Z,28.22
2022-09-03T13:58:01.667Z,28.48
2022-09-03T14:00:50.753Z,28.71
2022-09-03T14:03:37.240Z,28.77
2022-09-03T14:06:09.497Z,28.81
2022-09-03T14:09:01.448Z,28.95
2022-09-03T14:12:06.437Z,29.07
2022-09-03T14:14:46.912Z,29.32
2022-09-03T14:17:20.667Z,29.49
2022-09-03T14:20:05.583Z,29.85
2022-09-03T14:22:44.028Z,30.16
2022-09-03T14:25:15.662Z,29.65
2022-09-03T14:27:42.793Z,29.49
2022-09-03T14:30:30.180Z,28.92
2022-09-03T14:33:13.432Z,28.68
2022-09-03T14:35:52.805Z,28.43
2022-09-03T14:38:25.742Z,27.87
2022-09-03T14:41:20.355Z,27.93
2022-09-03T14:44:07.028Z,28.62
2022-09-03T14:46:55.969Z,28.71
2022-09-03T14:49:37.954Z,28.91
2022-09-03T14:52:35.668Z,28.65
2022-09-03T14:55:19.650Z,28.38
2022-09-03T14:58:06.104Z,27.99
2022-09-03T15:00:48.434Z,27.68
2022-09-03T15:03:27.377Z,27.20
2022-09-03T15:06:12.879Z,26.86
2022-09-03T15:08:45.548Z,26.61
2022-09-03T15:11:29.380Z,26.59
2022-09-03T15:14:12.443Z,26.45
2022-09-03T15:16:59.813Z,26.13
2022-09-03T15:19:32.861Z,26.27
2022-09-03T15:22:08.430Z,26.98
2022-09-03T15:24:59.078Z,27.69
2022-09-03T15:27:57.554Z,28.00
2022-09-03T15:30:34.073Z,28.19
2022-09-03T15:33:22.196Z,28.04
2022-09-03T15:36:01.618Z,28.12
2022-09-03T15:38:57.899Z,28.55
2022-09-03T15:41:32.544Z,28.81
2022-09-03T15:44:01.310Z,28.85
2022-09-03T15:46:52.844Z,28.92
2022-09-03T15:49:45.345Z,29.11
2022-09-03T15:52:31.777Z,29.29
2022-09-03T15:55:26.127Z,29.61
2022-09-03T15:58:04.988Z,29.36
2022-09-03T16:00:35.920Z,29.05
2022-09-03T16:03:12.220Z,29.23
2022-09-03T16:05:49.367Z,29.42
2022-09-03T16:08:22.417Z,29.53
2022-09-03T16:10:58.446Z,29.63
2022-09-03T16:13:55.935Z,29.72
2022-09-03T16:16:31.505Z,29.09
2022-09-03T16:19:03.435Z,28.74
2022-09-03T16:22:01.033Z,28.51
2022-09-03T16:24:53.369Z,28.30
2022-09-03T16:27:30.674Z,28.11
2022-09-03T16:30:01.139Z,27.86
2022-09-03T16:32:49.870Z,27.27
2022-09-03T16:35:28.072Z,26.89
2022-09-03T16:38:19.486Z,26.55
2022-09-03T16:40:56.863Z,26.19
2022-09-03T16:43:58.063Z,25.97
2022-09-03T16:46:31.062Z,25.56
2022-09-03T16:49:23.266Z,25.27
2022-09-03T16:52:38.674Z,25.07
2022-09-03T16:55:21.387Z,24.99
2022-09-03T16:58:00.943Z,25.06
2022-09-03T17:00:38.911Z,25.00
2022-09-03T17:03:28.499Z,24.74
2022-09-03T17:06:17.129Z,24.45
2022-09-03T17:09:06.857Z,24.40
2022-09-03T17:12:00.135Z,24.24
2022-09-03T17:14:45.889Z,24.10
2022-09-03T17:17:25.904Z,23.93
2022-09-03T17:20:36.040Z,23.79
2022-09-03T17:23:28.810Z,23.71
2022-09-03T17:26:07.577Z,23.60
2022-09-03T17:29:02.859Z,23.35
2022-09-03T17:31:47.781Z,23.19
2022-09-03T17:34:26.377Z,23.16
2022-09-03T17:37:18.866Z,23.15
2022-09-03T17:40:10.526Z,23.13
2022-09-03T17:42:57.140Z,23.05
2022-09-03T17:45:48.017Z,22.88
2022-09-03T17:48:39.292Z,22.70
2022-09-03T17:51:46.215Z,22.64
2022-09-03T17:54:34.288Z,22.60
2022-09-03T17:57:19.132Z,22.44
2022-09-03T18:00:26.181Z,22.29
2022-09-03T18:03:01.363Z,22.19
2022-09-03T18:05:34.642Z,22.04
2022-09-03T18:08:22.393Z,21.98
2022-09-03T18:11:09.912Z,21.95
2022-09-03T18:13:50.153Z,21.94
2022-09-03T18:16:33.078Z,21.73
2022-09-03T18:19:32.293Z,21.62
2022-09-03T18:22:21.222Z,21.67
2022-09-03T18:25:18.808Z,21.62
2022-09-03T18:28:06.830Z,21.54
2022-09-03T18:30:53.078Z,21.47
2022-09-03T18:33:42.815Z,21.37
2022-09-03T18:36:32.446Z,21.24
2022-09-03T18:39:52.100Z,21.03
2022-09-03T18:42:47.519Z,21.02
2022-09-03T18:49:26.717Z,21.02
2022-09-03T18:52:40.128Z,20.96
2022-09-03T18:55:56.919Z,20.86
2022-09-03T18:58:57.951Z,20.80
2022-09-03T19:01:53.666Z,20.74
2022-09-03T19:04:39.614Z,20.75
2022-09-03T19:07:34.345Z,20.69
2022-09-03T19:10:30.876Z,20.59
2022-09-03T19:13:33.963Z,20.55
2022-09-03T19:16:44.077Z,20.45
2022-09-03T19:19:45.146Z,20.38
2022-09-03T19:22:31.919Z,20.28
2022-09-03T19:25:36.117Z,20.31
2022-09-03T19:28:34.359Z,20.28
2022-09-03T19:32:00.231Z,20.23
2022-09-03T19:34:49.006Z,20.25
2022-09-03T19:37:38.766Z,20.24
2022-09-03T19:40:30.868Z,20.25
2022-09-03T19:43:33.615Z,20.21
2022-09-03T19:46:52.556Z,20.12
2022-09-03T19:49:45.047Z,20.15
2022-09-03T19:52:50.887Z,20.18
2022-09-03T19:55:40.693Z,20.15
2022-09-03T19:58:42.689Z,20.05
2022-09-03T20:01:31.227Z,20.03
2022-09-03T20:04:19.058Z,19.95
2022-09-03T20:07:06.163Z,19.85
2022-09-03T20:09:57.113Z,19.86
2022-09-03T20:12:25.364Z,19.80
2022-09-03T20:14:52.677Z,19.77
2022-09-03T20:17:32.980Z,19.72
2022-09-03T20:20:29.717Z,19.73
2022-09-03T20:23:01.748Z,19.73
2022-09-03T20:26:05.205Z,19.67
2022-09-03T20:28:45.806Z,19.59
2022-09-03T20:31:46.413Z,19.50
2022-09-03T20:34:26.210Z,19.47
2022-09-03T20:37:16.177Z,19.47
2022-09-03T20:40:20.952Z,19.42
2022-09-03T20:43:06.340Z,19.41
2022-09-03T20:45:44.334Z,19.38
2022-09-03T20:48:25.371Z,19.32
2022-09-03T20:51:23.370Z,19.32
2022-09-03T20:54:22.201Z,19.30
2022-09-03T20:56:55.537Z,19.25
2022-09-03T20:59:35.936Z,19.19
2022-09-03T21:02:38.650Z,19.15
2022-09-03T21:05:38.739Z,19.14
2022-09-03T21:08:11.968Z,19.14
2022-09-03T21:10:41.977Z,19.10
2022-09-03T21:13:19.295Z,19.08
2022-09-03T21:15:56.533Z,19.08
2022-09-03T21:18:27.043Z,19.07
2022-09-03T21:21:02.384Z,19.02
2022-09-03T21:23:33.799Z,18.94
2022-09-03T21:26:24.460Z,18.90
2022-09-03T21:29:07.882Z,18.85
2022-09-03T21:31:46.787Z,18.80
2022-09-03T21:34:45.697Z,18.78
2022-09-03T21:37:13.650Z,18.75
2022-09-03T21:39:52.715Z,18.70
2022-09-03T21:42:36.572Z,18.69
2022-09-03T21:45:30.687Z,18.69
2022-09-03T21:48:05.715Z,18.68
2022-09-03T21:50:55.624Z,18.70
2022-09-03T21:53:29.439Z,18.64
2022-09-03T21:55:59.559Z,18.60
2022-09-03T21:58:38.622Z,18.56
2022-09-03T22:01:12.526Z,18.55
2022-09-03T22:03:41.718Z,18.51
2022-09-03T22:06:14.649Z,18.50
2022-09-03T22:08:53.228Z,18.44
2022-09-03T22:11:37.452Z,18.42
2022-09-03T22:14:33.818Z,18.42
2022-09-03T22:17:11.353Z,18.43
2022-09-03T22:19:38.902Z,18.45
2022-09-03T22:22:28.038Z,18.36
2022-09-03T22:25:04.953Z,18.33
2022-09-03T22:28:00.708Z,18.23
2022-09-03T22:30:34.079Z,18.12
2022-09-03T22:33:46.537Z,18.11
2022-09-03T22:36:23.408Z,18.09
2022-09-03T22:39:11.808Z,18.04
2022-09-03T22:41:57.558Z,18.02
2022-09-03T22:44:39.990Z,17.98
2022-09-03T22:47:37.214Z,17.97
2022-09-03T22:50:18.270Z,17.92
2022-09-03T22:52:57.364Z,17.89
2022-09-03T22:55:26.059Z,17.85
2022-09-03T22:57:58.029Z,17.91
2022-09-03T23:00:26.027Z,17.91
2022-09-03T23:03:07.677Z,17.90
2022-09-03T23:05:56.596Z,17.91
2022-09-03T23:08:35.349Z,17.89
2022-09-03T23:11:10.286Z,17.79
2022-09-03T23:13:42.244Z,17.72
2022-09-03T23:16:15.448Z,17.69
2022-09-03T23:18:45.196Z,17.72
2022-09-03T23:21:53.763Z,17.63
2022-09-03T23:24:42.841Z,17.59
2022-09-03T23:27:15.254Z,17.55
2022-09-03T23:29:47.490Z,17.52
2022-09-03T23:32:15.055Z,17.47
2022-09-03T23:34:42.719Z,17.43
2022-09-03T23:37:34.472Z,17.41
2022-09-03T23:40:39.421Z,17.38
2022-09-03T23:43:45.641Z,17.33
2022-09-03T23:46:13.160Z,17.30
2022-09-03T23:49:04.419Z,17.28
2022-09-03T23:51:37.772Z,17.23
2022-09-03T23:54:13.402Z,17.19
2022-09-03T23:56:46.810Z,17.13
2022-09-03T23:59:40.694Z,17.10
